createdAt,value
2022-11-24T00:01:07.872Z,5.00
2022-11-24T00:03:35.049Z,6.57
2022-11-24T00:06:10.961Z,7.17
2022-11-24T00:08:39.598Z,3.90
2022-11-24T00:11:09.254Z,3.90
2022-11-24T00:13:39.167Z,6.30
2022-11-24T00:16:10.884Z,3.03
2022-11-24T00:18:41.862Z,5.20
2022-11-24T00:21:09.685Z,4.23
2022-11-24T00:23:37.618Z,4.00
2022-11-24T00:26:10.083Z,2.20
2022-11-24T00:28:37.943Z,4.87
2022-11-24T00:31:16.988Z,4.43
2022-11-24T00:33:45.073Z,2.87
2022-11-24T00:36:12.227Z,3.20
2022-11-24T00:38:39.473Z,2.00
2022-11-24T00:41:06.921Z,4.63
2022-11-24T00:43:34.069Z,3.03
2022-11-24T00:46:01.120Z,2.27
2022-11-24T00:48:28.382Z,4.97
2022-11-24T00:51:00.291Z,2.27
2022-11-24T00:53:27.478Z,4.73
2022-11-24T00:55:55.145Z,4.13
2022-11-24T00:58:23.518Z,4.23
2022-11-24T01:00:51.220Z,3.33
2022-11-24T01:03:19.950Z,3.03
2022-11-24T01:05:46.831Z,4.37
2022-11-24T01:08:13.793Z,5.57
2022-11-24T01:10:40.623Z,3.43
2022-11-24T01:13:07.511Z,2.60
2022-11-24T01:15:36.423Z,3.67
2022-11-24T01:18:04.369Z,2.37
2022-11-24T01:20:32.098Z,6.60
2022-11-24T01:22:58.974Z,2.57
2022-11-24T01:25:25.958Z,2.23
2022-11-24T01:27:52.865Z,2.10
2022-11-24T01:30:19.925Z,2.63
2022-11-24T01:32:46.905Z,2.30
2022-11-24T01:35:13.803Z,6.30
2022-11-24T01:37:40.683Z,2.47
2022-11-24T01:40:08.546Z,2.03
2022-11-24T01:42:50.148Z,2.43
2022-11-24T01:45:36.750Z,2.50
2022-11-24T01:48:07.534Z,5.03
2022-11-24T01:50:36.474Z,2.93
2022-11-24T01:53:04.784Z,5.13
2022-11-24T01:55:36.728Z,4.43
2022-11-24T01:58:06.019Z,3.63
2022-11-24T02:00:35.213Z,3.37
2022-11-24T02:03:02.334Z,3.33
2022-11-24T02:05:38.002Z,4.20
2022-11-24T02:08:10.503Z,5.47
2022-11-24T02:10:38.034Z,4.13
2022-11-24T02:13:05.370Z,7.53
2022-11-24T02:15:32.869Z,5.13
2022-11-24T02:17:59.862Z,4.47
2022-11-24T02:20:27.040Z,7.63
2022-11-24T02:23:11.231Z,4.07
2022-11-24T02:26:17.144Z,5.00
2022-11-24T02:28:44.280Z,4.70
2022-11-24T02:31:11.627Z,4.93
2022-11-24T02:33:38.696Z,7.63
2022-11-24T02:36:05.934Z,7.20
2022-11-24T02:38:35.029Z,7.00
2022-11-24T02:41:11.196Z,3.87
2022-11-24T02:43:53.708Z,6.27
2022-11-24T02:46:20.792Z,8.20
2022-11-24T02:48:48.018Z,10.67
2022-11-24T02:51:14.975Z,8.97
2022-11-24T02:53:41.926Z,5.83
2022-11-24T02:56:08.836Z,5.93
2022-11-24T02:58:35.829Z,5.33
2022-11-24T03:01:03.328Z,6.37
2022-11-24T03:03:30.372Z,4.40
2022-11-24T03:05:57.217Z,4.43
2022-11-24T03:08:24.108Z,5.47
2022-11-24T03:10:51.126Z,4.73
2022-11-24T03:13:18.100Z,7.43
2022-11-24T03:15:45.116Z,6.17
2022-11-24T03:18:12.095Z,5.60
2022-11-24T03:20:39.033Z,6.70
2022-11-24T03:23:05.996Z,6.23
2022-11-24T03:25:32.886Z,6.17
2022-11-24T03:27:59.757Z,9.40
2022-11-24T03:30:26.970Z,8.47
2022-11-24T03:32:54.342Z,8.53
2022-11-24T03:35:22.533Z,4.30
2022-11-24T03:37:49.641Z,5.07
2022-11-24T03:40:18.024Z,12.33
2022-11-24T03:42:44.971Z,3.47
2022-11-24T03:45:38.102Z,8.57
2022-11-24T03:47:59.111Z,15.53
2022-11-24T03:50:26.073Z,9.27
2022-11-24T03:52:53.542Z,6.00
2022-11-24T03:55:20.479Z,9.53
2022-11-24T03:57:47.930Z,6.37
2022-11-24T04:00:15.711Z,9.07
2022-11-24T04:02:42.665Z,3.53
2022-11-24T04:05:10.019Z,10.50
2022-11-24T04:07:37.121Z,7.30
2022-11-24T04:10:04.639Z,9.37
2022-11-24T04:12:46.558Z,8.47
2022-11-24T04:15:16.152Z,8.40
2022-11-24T04:17:44.245Z,4.87
2022-11-24T04:20:12.372Z,8.63
2022-11-24T04:22:39.851Z,7.87
2022-11-24T04:25:07.603Z,10.23
2022-11-24T04:27:36.177Z,11.87
2022-11-24T04:30:06.080Z,9.60
2022-11-24T04:32:32.935Z,10.73
2022-11-24T04:34:59.826Z,15.17
2022-11-24T04:37:26.783Z,16.20
2022-11-24T04:39:55.160Z,14.07
2022-11-24T04:42:22.137Z,16.23
2022-11-24T04:44:49.016Z,21.83
2022-11-24T04:47:19.727Z,14.27
2022-11-24T04:49:50.062Z,13.30
2022-11-24T04:52:18.168Z,17.40
2022-11-24T04:54:45.522Z,13.33
2022-11-24T04:57:21.531Z,10.67
2022-11-24T04:59:49.731Z,16.90
2022-11-24T05:02:17.200Z,16.80
2022-11-24T05:04:44.460Z,15.83
2022-11-24T05:07:18.044Z,11.27
2022-11-24T05:10:05.152Z,17.40
2022-11-24T05:12:32.442Z,13.07
2022-11-24T05:15:03.918Z,13.73
2022-11-24T05:17:33.951Z,13.57
2022-11-24T05:20:01.021Z,10.87
2022-11-24T05:22:29.576Z,14.20
2022-11-24T05:24:56.553Z,15.97
2022-11-24T05:27:23.582Z,13.33
2022-11-24T05:29:50.540Z,19.03
2022-11-24T05:32:17.617Z,13.53
2022-11-24T05:34:44.513Z,14.10
2022-11-24T05:37:11.637Z,13.23
2022-11-24T05:39:38.686Z,11.47
2022-11-24T05:42:25.662Z,11.87
2022-11-24T05:44:53.512Z,12.93
2022-11-24T05:47:21.752Z,13.10
2022-11-24T05:49:48.719Z,9.30
2022-11-24T05:52:16.313Z,10.63
2022-11-24T05:54:43.259Z,18.30
2022-11-24T05:57:10.270Z,14.43
2022-11-24T05:59:37.137Z,14.83
2022-11-24T06:02:04.511Z,11.07
2022-11-24T06:04:32.162Z,18.50
2022-11-24T06:06:59.414Z,17.17
2022-11-24T06:09:26.274Z,12.20
2022-11-24T06:11:53.278Z,11.80
2022-11-24T06:14:20.180Z,8.27
2022-11-24T06:16:47.272Z,11.70
2022-11-24T06:19:14.291Z,15.83
2022-11-24T06:21:41.465Z,12.83
2022-11-24T06:24:08.631Z,15.43
2022-11-24T06:26:35.433Z,8.97
2022-11-24T06:29:02.366Z,10.97
2022-11-24T06:31:29.376Z,10.27
2022-11-24T06:33:56.518Z,12.73
2022-11-24T06:36:23.515Z,13.70
2022-11-24T06:38:51.869Z,13.30
2022-11-24T06:41:19.313Z,8.67
2022-11-24T06:43:47.539Z,15.33
2022-11-24T06:46:14.763Z,9.80
2022-11-24T06:48:41.806Z,8.93
2022-11-24T06:51:11.649Z,14.67
2022-11-24T06:53:40.126Z,12.20
2022-11-24T06:56:15.584Z,9.63
2022-11-24T06:58:46.492Z,10.10
2022-11-24T07:01:23.237Z,10.97
2022-11-24T07:03:51.497Z,17.77
2022-11-24T07:06:19.871Z,11.37
2022-11-24T07:08:47.395Z,10.53
2022-11-24T07:11:20.766Z,13.20
2022-11-24T07:13:48.096Z,14.03
2022-11-24T07:16:16.333Z,14.70
2022-11-24T07:18:44.540Z,8.63
2022-11-24T07:21:11.482Z,15.40
2022-11-24T07:23:38.739Z,7.30
2022-11-24T07:26:07.672Z,11.83
2022-11-24T07:28:36.588Z,7.10
2022-11-24T07:31:21.137Z,17.13
2022-11-24T07:33:49.978Z,10.60
2022-11-24T07:36:16.942Z,7.37
2022-11-24T07:38:44.039Z,7.77
2022-11-24T07:41:12.538Z,8.20
2022-11-24T07:43:40.069Z,7.40
2022-11-24T07:46:10.004Z,6.70
2022-11-24T07:48:37.207Z,11.20
2022-11-24T07:51:05.414Z,4.47
2022-11-24T07:53:33.622Z,7.87
2022-11-24T07:56:02.064Z,3.40
2022-11-24T07:58:32.951Z,9.90
2022-11-24T08:01:01.089Z,5.73
2022-11-24T08:03:28.377Z,3.70
2022-11-24T08:06:23.163Z,4.90
2022-11-24T08:08:47.056Z,1.30
2022-11-24T08:11:18.207Z,2.57
2022-11-24T08:13:45.416Z,6.33
2022-11-24T08:16:17.762Z,2.63
2022-11-24T08:18:49.423Z,3.33
2022-11-24T08:21:16.319Z,3.40
2022-11-24T08:23:43.301Z,1.23
2022-11-24T08:26:15.791Z,2.10
2022-11-24T08:28:43.540Z,2.47
2022-11-24T08:31:13.440Z,5.13
2022-11-24T08:33:41.093Z,2.30
2022-11-24T08:36:11.343Z,3.40
2022-11-24T08:38:38.532Z,6.30
2022-11-24T08:41:11.397Z,5.93
2022-11-24T08:43:38.698Z,2.00
2022-11-24T08:46:19.424Z,4.87
2022-11-24T08:48:51.426Z,5.80
2022-11-24T08:51:24.943Z,4.00
2022-11-24T08:53:55.887Z,9.07
2022-11-24T08:56:22.800Z,7.37
2022-11-24T08:58:49.814Z,5.20
2022-11-24T09:01:17.875Z,5.30
2022-11-24T09:03:50.836Z,5.90
2022-11-24T09:06:19.629Z,4.17
2022-11-24T09:08:46.707Z,4.07
2022-11-24T09:11:15.359Z,5.13
2022-11-24T09:13:43.361Z,2.40
2022-11-24T09:16:11.282Z,2.73
2022-11-24T09:18:39.046Z,3.53
2022-11-24T09:21:17.358Z,3.87
2022-11-24T09:23:45.780Z,3.37
2022-11-24T09:26:18.874Z,5.67
2022-11-24T09:28:46.979Z,5.30
2022-11-24T09:31:16.537Z,8.87
2022-11-24T09:33:45.172Z,3.63
2022-11-24T09:36:13.780Z,8.90
2022-11-24T09:38:41.460Z,5.27
2022-11-24T09:41:17.329Z,5.50
2022-11-24T09:44:14.457Z,5.87
2022-11-24T09:47:02.489Z,3.97
2022-11-24T09:49:51.046Z,4.30
2022-11-24T09:52:24.697Z,3.33
2022-11-24T09:55:00.382Z,4.60
2022-11-24T09:57:35.711Z,2.67
2022-11-24T10:00:12.115Z,2.57
2022-11-24T10:02:40.157Z,8.03
2022-11-24T10:05:07.557Z,1.67
2022-11-24T10:07:44.128Z,4.23
2022-11-24T10:10:29.598Z,2.17
2022-11-24T10:13:20.675Z,2.03
2022-11-24T10:16:07.356Z,2.33
2022-11-24T10:19:04.016Z,8.20
2022-11-24T10:22:09.479Z,0.63
2022-11-24T10:24:36.402Z,4.30
2022-11-24T10:27:18.228Z,2.60
2022-11-24T10:29:47.505Z,2.87
2022-11-24T10:32:26.568Z,3.00
2022-11-24T10:34:58.363Z,6.00
2022-11-24T10:37:37.077Z,2.97
2022-11-24T10:40:33.363Z,2.40
2022-11-24T10:43:10.289Z,2.63
2022-11-24T10:45:39.352Z,5.77
2022-11-24T10:48:19.843Z,4.17
2022-11-24T10:50:46.774Z,2.83
2022-11-24T10:53:25.477Z,4.70
2022-11-24T10:55:58.180Z,3.37
2022-11-24T10:58:38.276Z,3.53
2022-11-24T11:01:31.944Z,4.23
2022-11-24T11:04:01.715Z,6.40
2022-11-24T11:06:31.178Z,6.23
2022-11-24T11:09:07.455Z,4.60
2022-11-24T11:11:35.595Z,3.60
2022-11-24T11:14:07.363Z,5.87
2022-11-24T11:16:40.164Z,6.57
2022-11-24T11:19:49.352Z,4.23
2022-11-24T11:22:19.134Z,5.30
2022-11-24T11:24:48.361Z,6.37
2022-11-24T11:27:24.702Z,2.33
2022-11-24T11:35:42.065Z,4.53
2022-11-24T11:38:11.570Z,3.77
2022-11-24T11:40:42.729Z,9.07
2022-11-24T11:43:19.143Z,3.80
2022-11-24T11:45:50.713Z,4.00
2022-11-24T11:48:26.727Z,2.60
2022-11-24T11:51:22.907Z,3.47
2022-11-24T11:54:05.195Z,2.93
2022-11-24T11:56:40.332Z,5.07
2022-11-24T11:59:41.200Z,2.83
2022-11-24T12:02:39.836Z,4.83
2022-11-24T12:05:44.398Z,1.30
2022-11-24T12:09:03.387Z,3.43
2022-11-24T12:11:31.692Z,2.93
2022-11-24T12:14:39.195Z,3.03
2022-11-24T12:17:13.741Z,3.33
2022-11-24T12:19:43.543Z,5.90
2022-11-24T12:22:18.843Z,1.83
2022-11-24T12:25:05.708Z,3.73
2022-11-24T12:28:11.902Z,2.67
2022-11-24T12:31:03.494Z,6.43
2022-11-24T12:33:50.940Z,2.83
2022-11-24T12:36:37.939Z,2.93
2022-11-24T12:39:17.188Z,8.97
2022-11-24T12:42:22.108Z,11.27
2022-11-24T12:44:49.084Z,10.27
2022-11-24T12:47:46.004Z,1.43
2022-11-24T12:50:22.314Z,2.27
2022-11-24T12:53:00.893Z,9.10
2022-11-24T12:55:30.256Z,5.00
2022-11-24T12:58:24.147Z,7.07
2022-11-24T13:01:18.462Z,9.33
2022-11-24T13:03:50.993Z,4.13
2022-11-24T13:06:33.879Z,4.30
2022-11-24T13:09:12.104Z,13.03
2022-11-24T13:11:44.006Z,6.37
2022-11-24T13:14:23.016Z,3.97
2022-11-24T13:17:28.109Z,5.07
2022-11-24T13:19:46.603Z,14.93
2022-11-24T13:22:15.500Z,8.67
2022-11-24T13:24:43.107Z,5.47
2022-11-24T13:27:16.304Z,9.13
2022-11-24T13:29:44.428Z,16.37
2022-11-24T13:32:11.869Z,6.43
2022-11-24T13:34:49.821Z,4.47
2022-11-24T13:37:39.868Z,10.23
2022-11-24T13:40:17.817Z,11.63
2022-11-24T13:43:02.543Z,7.60
2022-11-24T13:45:42.025Z,6.07
2022-11-24T13:48:21.935Z,6.43
2022-11-24T13:51:01.575Z,5.00
2022-11-24T13:53:40.396Z,5.70
2022-11-24T13:56:13.409Z,4.30
2022-11-24T13:58:46.497Z,3.00
2022-11-24T14:01:18.410Z,8.40
2022-11-24T14:04:07.026Z,12.30
2022-11-24T14:06:42.313Z,4.70
2022-11-24T14:09:25.016Z,8.03
2022-11-24T14:12:16.882Z,2.63
2022-11-24T14:14:46.632Z,5.93
2022-11-24T14:17:13.746Z,6.73
2022-11-24T14:19:49.089Z,5.53
2022-11-24T14:22:34.081Z,9.20
2022-11-24T14:25:02.320Z,6.87
2022-11-24T14:27:39.465Z,5.73
2022-11-24T14:30:09.808Z,10.03
2022-11-24T14:32:37.857Z,5.70
2022-11-24T14:35:28.900Z,4.20
2022-11-24T14:37:56.251Z,9.33
2022-11-24T14:40:42.038Z,4.93
2022-11-24T14:43:23.917Z,14.53
2022-11-24T14:45:56.062Z,8.00
2022-11-24T14:48:33.464Z,11.07
2022-11-24T14:51:11.840Z,9.70
2022-11-24T14:53:43.762Z,8.13
2022-11-24T14:56:23.064Z,5.90
2022-11-24T14:58:50.647Z,22.63
2022-11-24T15:01:34.064Z,14.03
2022-11-24T15:04:54.483Z,19.73
2022-11-24T15:07:22.658Z,11.93
2022-11-24T15:09:58.367Z,7.50
2022-11-24T15:12:34.309Z,5.93
2022-11-24T15:15:03.016Z,8.03
2022-11-24T15:17:30.753Z,6.33
2022-11-24T15:20:32.027Z,7.43
2022-11-24T15:23:28.057Z,13.10
2022-11-24T15:25:56.336Z,6.23
2022-11-24T15:28:27.552Z,5.73
2022-11-24T15:31:02.058Z,3.20
2022-11-24T15:33:29.783Z,3.97
2022-11-24T15:35:56.732Z,5.10
2022-11-24T15:38:23.992Z,6.30
2022-11-24T15:40:53.257Z,7.93
2022-11-24T15:43:20.241Z,6.33
2022-11-24T15:45:47.129Z,5.83
2022-11-24T15:48:17.914Z,4.50
2022-11-24T15:50:46.900Z,4.13
2022-11-24T15:53:29.511Z,6.43
2022-11-24T15:55:57.472Z,6.47
2022-11-24T15:58:24.591Z,9.80
2022-11-24T16:00:53.405Z,6.43
2022-11-24T16:06:15.854Z,6.50
2022-11-24T16:08:46.439Z,3.93
2022-11-24T16:11:13.348Z,5.33
2022-11-24T16:13:40.419Z,6.57
2022-11-24T16:16:07.890Z,4.40
2022-11-24T16:18:39.299Z,5.60
2022-11-24T16:21:10.838Z,11.93
2022-11-24T16:23:38.107Z,14.80
2022-11-24T16:26:05.871Z,8.53
2022-11-24T16:28:33.270Z,8.53
2022-11-24T16:31:00.133Z,14.33
2022-11-24T16:33:29.547Z,8.77
2022-11-24T16:35:56.623Z,7.17
2022-11-24T16:38:23.680Z,6.13
2022-11-24T16:40:56.114Z,7.93
2022-11-24T16:43:24.499Z,17.53
2022-11-24T16:46:16.134Z,18.50
2022-11-24T16:48:44.579Z,16.87
2022-11-24T16:51:13.486Z,14.70
2022-11-24T16:53:41.110Z,12.20
2022-11-24T16:56:08.588Z,11.10
2022-11-24T16:58:40.254Z,6.17
2022-11-24T17:01:10.343Z,13.27
2022-11-24T17:03:37.980Z,10.37
2022-11-24T17:06:11.441Z,10.37
2022-11-24T17:08:40.464Z,14.03
2022-11-24T17:11:10.741Z,8.83
2022-11-24T17:13:38.947Z,14.43
2022-11-24T17:16:07.845Z,11.70
2022-11-24T17:18:35.911Z,8.73
2022-11-24T17:21:09.191Z,6.93
2022-11-24T17:23:37.213Z,12.00
2022-11-24T17:26:06.067Z,9.53
2022-11-24T17:28:33.724Z,9.47
2022-11-24T17:31:25.387Z,9.80
2022-11-24T17:33:57.105Z,8.83
2022-11-24T17:36:24.899Z,10.90
2022-11-24T17:38:52.228Z,10.07
2022-11-24T17:41:19.747Z,8.63
2022-11-24T17:43:51.931Z,10.03
2022-11-24T17:46:19.341Z,9.23
2022-11-24T17:48:47.011Z,11.93
2022-11-24T17:51:19.511Z,12.97
2022-11-24T17:53:49.495Z,15.67
2022-11-24T17:56:24.821Z,11.63
2022-11-24T17:58:56.841Z,9.47
2022-11-24T18:01:24.906Z,5.53
2022-11-24T18:03:53.908Z,10.20
2022-11-24T18:06:25.137Z,11.43
2022-11-24T18:08:54.199Z,9.47
2022-11-24T18:11:31.109Z,9.40
2022-11-24T18:14:02.906Z,12.30
2022-11-24T18:16:32.728Z,9.23
2022-11-24T18:19:08.892Z,10.83
2022-11-24T18:21:38.798Z,7.77
2022-11-24T18:24:06.972Z,15.23
2022-11-24T18:26:33.913Z,24.87
2022-11-24T18:29:00.766Z,28.03
2022-11-24T18:31:29.344Z,19.30
2022-11-24T18:33:56.778Z,17.93
2022-11-24T18:36:29.949Z,21.67
2022-11-24T18:39:04.541Z,14.53
2022-11-24T18:41:31.889Z,17.77
2022-11-24T18:44:02.428Z,15.60
2022-11-24T18:46:29.384Z,26.23
2022-11-24T18:48:56.364Z,17.13
2022-11-24T18:51:23.612Z,24.83
2022-11-24T18:53:58.100Z,27.13
2022-11-24T18:56:26.217Z,21.47
2022-11-24T18:58:54.711Z,22.17
2022-11-24T19:01:24.760Z,17.40
2022-11-24T19:03:57.433Z,22.17
2022-11-24T19:06:32.315Z,28.67
2022-11-24T19:09:01.775Z,19.67
2022-11-24T19:11:34.044Z,15.27
2022-11-24T19:14:05.290Z,20.17
2022-11-24T19:16:32.662Z,20.23
2022-11-24T19:19:00.273Z,17.83
2022-11-24T19:21:28.438Z,12.80
2022-11-24T19:23:59.810Z,14.13
2022-11-24T19:26:30.135Z,12.47
2022-11-24T19:28:57.309Z,14.33
2022-11-24T19:31:24.221Z,9.60
2022-11-24T19:33:52.901Z,13.77
2022-11-24T19:36:21.590Z,15.83
2022-11-24T19:38:53.641Z,14.57
2022-11-24T19:41:23.037Z,12.10
2022-11-24T19:43:50.211Z,15.20
2022-11-24T19:46:18.577Z,19.83
2022-11-24T19:48:50.133Z,15.00
2022-11-24T19:51:22.748Z,17.37
2022-11-24T19:53:49.845Z,24.73
2022-11-24T19:56:22.356Z,20.20
2022-11-24T19:58:50.503Z,33.77
2022-11-24T20:01:38.988Z,38.47
2022-11-24T20:04:13.754Z,18.03
2022-11-24T20:06:45.862Z,15.23
2022-11-24T20:09:17.901Z,17.83
2022-11-24T20:11:45.905Z,15.37
2022-11-24T20:14:15.205Z,13.57
2022-11-24T20:16:42.237Z,18.57
2022-11-24T20:19:14.865Z,12.80
2022-11-24T20:21:46.283Z,14.17
2022-11-24T20:24:22.273Z,25.10
2022-11-24T20:26:54.606Z,27.77
2022-11-24T20:29:21.622Z,25.57
2022-11-24T20:31:51.195Z,17.93
2022-11-24T20:34:20.244Z,20.40
2022-11-24T20:36:47.799Z,15.60
2022-11-24T20:39:25.485Z,22.00
2022-11-24T20:41:53.453Z,23.17
2022-11-24T20:44:22.215Z,24.50
2022-11-24T20:46:49.992Z,22.10
2022-11-24T20:49:19.228Z,24.23
2022-11-24T20:51:49.320Z,23.20
2022-11-24T20:54:18.039Z,23.93
2022-11-24T20:56:46.691Z,22.23
2022-11-24T20:59:21.545Z,20.37
2022-11-24T21:01:50.012Z,28.33
2022-11-24T21:04:20.928Z,21.13
2022-11-24T21:06:47.872Z,16.20
2022-11-24T21:09:15.071Z,17.50
2022-11-24T21:11:42.590Z,19.73
2022-11-24T21:14:10.346Z,20.40
2022-11-24T21:16:39.367Z,36.17
2022-11-24T21:19:09.618Z,29.33
2022-11-24T21:21:37.321Z,49.57
2022-11-24T21:24:11.914Z,109.50
2022-11-24T21:26:39.667Z,60.10
2022-11-24T21:29:07.411Z,44.37
2022-11-24T21:31:39.066Z,62.40
2022-11-24T21:34:07.112Z,39.57
2022-11-24T21:36:35.142Z,35.77
2022-11-24T21:39:03.077Z,42.83
2022-11-24T21:41:33.108Z,85.40
2022-11-24T21:44:00.036Z,31.67
2022-11-24T21:46:30.127Z,30.07
2022-11-24T21:48:57.051Z,37.57
2022-11-24T21:51:24.907Z,24.23
2022-11-24T21:53:52.093Z,32.70
2022-11-24T21:56:21.163Z,46.23
2022-11-24T21:58:54.268Z,156.50
2022-11-24T22:01:23.127Z,66.30
2022-11-24T22:03:50.242Z,115.80
2022-11-24T22:06:19.410Z,83.43
2022-11-24T22:08:47.814Z,327.07
2022-11-24T22:11:17.885Z,91.33
2022-11-24T22:13:45.077Z,194.20
2022-11-24T22:16:18.060Z,162.60
2022-11-24T22:18:45.855Z,95.83
2022-11-24T22:21:15.108Z,90.40
2022-11-24T22:23:42.877Z,66.57
2022-11-24T22:26:15.944Z,56.27
2022-11-24T22:28:43.851Z,28.83
2022-11-24T22:31:19.364Z,14.83
2022-11-24T22:33:47.131Z,16.93
2022-11-24T22:36:15.741Z,11.40
2022-11-24T22:38:43.731Z,17.40
2022-11-24T22:41:13.528Z,19.23
2022-11-24T22:43:41.915Z,20.63
2022-11-24T22:46:38.270Z,18.30
2022-11-24T22:49:05.432Z,14.50
2022-11-24T22:51:34.589Z,15.93
2022-11-24T22:54:03.914Z,16.67
2022-11-24T22:56:34.205Z,14.20
2022-11-24T22:59:02.321Z,18.33
2022-11-24T23:01:30.283Z,15.47
2022-11-24T23:03:57.391Z,17.57
2022-11-24T23:06:26.945Z,15.83
2022-11-24T23:08:54.824Z,11.83
2022-11-24T23:11:30.693Z,13.07
2022-11-24T23:14:02.885Z,14.10
2022-11-24T23:16:30.202Z,11.90
2022-11-24T23:18:57.557Z,12.03
2022-11-24T23:21:29.571Z,10.37
2022-11-24T23:23:58.565Z,12.27
2022-11-24T23:26:28.354Z,12.60
2022-11-24T23:28:55.440Z,11.17
2022-11-24T23:31:27.230Z,13.37
2022-11-24T23:34:04.093Z,10.27
2022-11-24T23:36:31.613Z,12.37
2022-11-24T23:39:11.493Z,12.77
2022-11-24T23:41:38.390Z,12.90
2022-11-24T23:44:05.934Z,11.47
2022-11-24T23:46:33.512Z,12.73
2022-11-24T23:49:00.477Z,10.27
2022-11-24T23:51:29.883Z,13.80
2022-11-24T23:53:57.520Z,15.03
2022-11-24T23:56:27.281Z,9.30
2022-11-24T23:58:54.262Z,12.33
